Time;durP1;ratioP1;P1;durP2;ratioP2;P2;SDS_P1;SDS_P2;PMS_P1;PMS_P2;Temp;Humidity;BMP_temperature;BMP_pressure;BME280_temperature;BME280_humidity;BME280_pressure;Samples;Min_cycle;Max_cycle;Signal;HPM_P1;HPM_P2
2021/12/19 00:04:03;;;;;;;11.27;6.88;;;7.20;99.90;;;;;;5034726;28;20172;-69
2021/12/19 00:09:13;;;;;;;11.68;5.80;;;7.20;99.90;;;;;;5034112;28;20413;-71
2021/12/19 00:11:39;;;;;;;8.57;6.05;;;7.20;99.90;;;;;;5018049;28;20401;-71
2021/12/19 00:14:05;;;;;;;12.63;5.47;;;7.20;99.90;;;;;;5034602;28;20053;-70
2021/12/19 00:16:31;;;;;;;10.13;6.30;;;7.20;99.90;;;;;;5028153;28;20045;-69
2021/12/19 00:18:57;;;;;;;10.15;6.47;;;7.20;99.90;;;;;;5016763;28;20059;-71
2021/12/19 00:21:25;;;;;;;10.60;6.47;;;7.20;99.90;;;;;;5034176;28;20061;-70
2021/12/19 00:23:52;;;;;;;9.98;6.30;;;7.20;99.90;;;;;;5034049;28;20048;-69
2021/12/19 00:26:18;;;;;;;9.43;6.05;;;7.30;99.90;;;;;;5034477;28;20059;-69
2021/12/19 00:28:45;;;;;;;11.10;6.75;;;7.20;99.90;;;;;;5034374;28;20435;-70
2021/12/19 00:31:11;;;;;;;10.82;6.82;;;7.30;99.90;;;;;;5052520;28;20049;-71
2021/12/19 00:33:39;;;;;;;10.35;5.90;;;7.30;99.90;;;;;;5032565;28;20067;-71
2021/12/19 00:36:06;;;;;;;10.80;6.07;;;7.20;99.90;;;;;;5050571;28;21263;-70
2021/12/19 00:38:32;;;;;;;10.18;6.15;;;7.30;99.90;;;;;;5052174;28;20052;-70
2021/12/19 00:40:58;;;;;;;9.40;5.53;;;7.20;99.90;;;;;;5052350;28;20056;-69
2021/12/19 00:43:52;;;;;;;10.93;5.93;;;7.30;99.90;;;;;;5034386;28;20049;-69
2021/12/19 00:46:13;;;;;;;10.43;5.60;;;7.30;99.90;;;;;;5033118;28;20049;-68
2021/12/19 00:48:44;;;;;;;11.40;6.53;;;7.30;99.90;;;;;;5020949;28;20076;-68
2021/12/19 00:51:15;;;;;;;10.40;6.07;;;7.30;99.90;;;;;;5024649;28;20045;-70
2021/12/19 00:53:41;;;;;;;11.13;6.45;;;7.20;99.90;;;;;;5020504;28;20053;-70
2021/12/19 00:56:07;;;;;;;11.60;6.55;;;7.20;99.90;;;;;;5038347;28;20124;-70
2021/12/19 00:58:33;;;;;;;13.15;6.78;;;7.20;99.90;;;;;;5039080;28;20157;-70
2021/12/19 01:00:59;;;;;;;14.88;6.78;;;7.30;99.90;;;;;;5037833;28;20198;-69
2021/12/19 01:03:25;;;;;;;12.32;7.43;;;7.30;99.90;;;;;;5038294;28;20056;-68
2021/12/19 01:05:52;;;;;;;16.58;7.72;;;7.30;99.90;;;;;;5038379;28;20049;-68
2021/12/19 01:08:18;;;;;;;11.65;7.13;;;7.30;99.90;;;;;;5056600;28;20435;-69
2021/12/19 01:10:45;;;;;;;14.30;6.97;;;7.30;99.90;;;;;;5038523;28;20132;-70
2021/12/19 01:13:12;;;;;;;12.00;6.70;;;7.30;99.90;;;;;;5056099;28;20045;-70
2021/12/19 01:15:38;;;;;;;12.48;7.18;;;7.30;99.90;;;;;;5037138;28;20057;-70
2021/12/19 01:18:04;;;;;;;12.80;7.40;;;7.30;99.90;;;;;;5037754;28;20132;-70
2021/12/19 01:20:32;;;;;;;14.80;7.18;;;7.30;99.90;;;;;;5038223;28;20127;-69
2021/12/19 01:22:58;;;;;;;12.93;7.05;;;7.30;99.90;;;;;;5037681;28;20060;-70
2021/12/19 01:25:24;;;;;;;12.35;7.22;;;7.30;99.90;;;;;;5021424;28;20497;-69
2021/12/19 01:27:50;;;;;;;10.38;6.50;;;7.30;99.90;;;;;;5035987;28;20048;-69
2021/12/19 01:30:16;;;;;;;9.30;5.45;;;7.30;99.90;;;;;;5038167;28;20052;-69
2021/12/19 01:32:43;;;;;;;7.03;4.55;;;7.30;99.90;;;;;;5037383;28;20562;-69
2021/12/19 01:35:11;;;;;;;6.55;3.70;;;7.30;99.90;;;;;;5055758;28;20052;-68
2021/12/19 01:37:36;;;;;;;6.53;3.40;;;7.30;99.90;;;;;;5037130;28;20076;-70
2021/12/19 01:40:04;;;;;;;5.40;2.92;;;7.30;99.90;;;;;;5037571;28;20041;-70
2021/12/19 01:42:31;;;;;;;3.28;2.35;;;7.30;99.90;;;;;;5020951;28;20102;-69
2021/12/19 01:44:57;;;;;;;4.07;2.20;;;7.30;99.90;;;;;;5037596;28;20508;-71
2021/12/19 01:47:23;;;;;;;3.95;2.47;;;7.30;99.90;;;;;;5054875;28;20045;-69
2021/12/19 01:49:49;;;;;;;4.10;1.98;;;7.30;99.90;;;;;;5037447;28;20052;-70
2021/12/19 01:52:14;;;;;;;4.32;2.80;;;7.30;99.90;;;;;;5037465;28;20041;-69
2021/12/19 01:54:40;;;;;;;5.22;2.72;;;7.30;99.90;;;;;;5037072;28;20072;-70
2021/12/19 01:57:05;;;;;;;3.80;2.42;;;7.30;99.90;;;;;;5035149;28;20049;-69
2021/12/19 01:59:31;;;;;;;3.97;2.25;;;7.30;99.90;;;;;;5036048;28;20049;-70
2021/12/19 02:01:57;;;;;;;5.03;1.85;;;7.30;99.90;;;;;;5036832;28;20156;-70
2021/12/19 02:04:23;;;;;;;2.25;1.60;;;7.30;99.90;;;;;;5037390;28;20047;-71
2021/12/19 02:06:50;;;;;;;2.50;1.67;;;7.30;99.90;;;;;;5037431;28;20059;-71
2021/12/19 02:09:16;;;;;;;2.30;1.33;;;7.30;99.90;;;;;;5031032;28;20056;-69
2021/12/19 02:11:42;;;;;;;2.25;1.67;;;7.30;99.90;;;;;;5036990;28;20349;-69
2021/12/19 02:14:10;;;;;;;3.90;1.77;;;7.30;99.90;;;;;;5051774;28;20045;-70
2021/12/19 02:16:38;;;;;;;2.00;1.50;;;7.20;99.90;;;;;;5053581;28;20057;-69
2021/12/19 02:19:05;;;;;;;3.55;1.42;;;7.30;99.90;;;;;;5036046;28;20166;-70
2021/12/19 02:21:31;;;;;;;2.25;1.67;;;7.20;99.90;;;;;;5036602;28;20493;-69
2021/12/19 02:23:58;;;;;;;2.45;1.33;;;7.20;99.90;;;;;;5035770;28;20063;-70
2021/12/19 02:26:24;;;;;;;2.17;1.60;;;7.20;99.90;;;;;;5053135;28;20056;-71
2021/12/19 02:28:49;;;;;;;1.35;1.05;;;7.20;99.90;;;;;;5034902;28;20416;-69
2021/12/19 02:31:15;;;;;;;0.93;0.82;;;7.20;99.90;;;;;;5036478;28;20057;-70
2021/12/19 02:33:44;;;;;;;2.17;1.00;;;7.20;99.90;;;;;;5036173;28;20053;-70
2021/12/19 02:49:23;;;;;;;2.38;1.50;;;7.20;99.90;;;;;;5036669;28;20131;-70
2021/12/19 02:51:51;;;;;;;2.63;1.60;;;7.10;99.90;;;;;;5030188;28;20057;-70
2021/12/19 02:54:17;;;;;;;3.45;1.40;;;7.10;99.90;;;;;;5027047;28;20045;-70
2021/12/19 02:56:42;;;;;;;1.55;1.30;;;7.10;99.90;;;;;;5036689;28;20064;-70
2021/12/19 02:59:08;;;;;;;3.13;1.27;;;7.20;99.90;;;;;;5053981;28;20053;-68
2021/12/19 03:01:34;;;;;;;3.83;1.35;;;7.10;99.90;;;;;;5034868;28;20089;-70
2021/12/19 03:03:59;;;;;;;2.45;1.15;;;7.10;99.90;;;;;;5035930;28;20059;-68
2021/12/19 03:06:25;;;;;;;1.83;1.10;;;7.10;99.90;;;;;;5036130;28;20114;-68
2021/12/19 03:08:52;;;;;;;2.17;1.25;;;7.10;99.90;;;;;;5018779;28;20053;-69
2021/12/19 03:19:22;;;;;;;2.17;1.40;;;7.10;99.90;;;;;;5052208;28;20087;-69
2021/12/19 03:21:48;;;;;;;1.42;1.13;;;7.10;99.90;;;;;;5035320;28;20061;-68
2021/12/19 03:24:13;;;;;;;1.00;0.70;;;7.10;99.90;;;;;;5036251;28;20063;-70
2021/12/19 03:26:39;;;;;;;2.08;0.93;;;7.10;99.90;;;;;;5035710;28;20132;-69
2021/12/19 03:29:05;;;;;;;1.75;1.00;;;7.00;99.90;;;;;;5035326;28;20057;-71
2021/12/19 03:31:31;;;;;;;0.77;0.70;;;7.00;99.90;;;;;;5034771;28;20374;-71
2021/12/19 03:33:57;;;;;;;1.38;0.80;;;7.00;99.90;;;;;;5036044;28;20045;-69
2021/12/19 03:36:22;;;;;;;2.00;0.90;;;7.10;99.90;;;;;;5052484;28;20459;-69
2021/12/19 03:38:49;;;;;;;1.10;0.90;;;7.00;99.90;;;;;;5024556;28;20050;-72
2021/12/19 03:41:21;;;;;;;1.85;0.98;;;7.00;99.90;;;;;;5008018;28;20049;-69
2021/12/19 03:43:48;;;;;;;2.03;1.10;;;7.00;99.90;;;;;;5021600;28;20541;-69
2021/12/19 03:46:14;;;;;;;1.20;0.90;;;7.00;99.90;;;;;;5011629;28;20042;-70
2021/12/19 03:48:40;;;;;;;2.08;0.90;;;7.00;99.90;;;;;;5014519;28;20060;-70
2021/12/19 03:51:07;;;;;;;2.10;1.20;;;7.00;99.90;;;;;;5014057;28;20042;-70
2021/12/19 03:53:32;;;;;;;2.30;1.17;;;7.00;99.90;;;;;;5005810;28;20490;-69
2021/12/19 03:55:58;;;;;;;2.15;1.35;;;7.00;99.90;;;;;;5010649;28;20042;-69
2021/12/19 03:58:24;;;;;;;1.90;1.10;;;7.10;99.90;;;;;;5012221;28;20350;-70
2021/12/19 04:00:51;;;;;;;2.05;0.88;;;7.00;99.90;;;;;;5013670;28;20683;-71
2021/12/19 04:03:19;;;;;;;1.13;0.90;;;7.00;99.90;;;;;;5027844;28;20101;-68
2021/12/19 04:05:47;;;;;;;0.93;0.80;;;7.00;99.90;;;;;;5004136;28;20045;-69
2021/12/19 04:08:13;;;;;;;0.95;0.75;;;7.00;99.90;;;;;;5028905;28;20053;-69
2021/12/19 04:10:39;;;;;;;0.80;0.60;;;6.90;99.90;;;;;;5031970;28;20049;-68
2021/12/19 04:13:06;;;;;;;3.13;1.00;;;6.90;99.90;;;;;;5024147;28;20525;-69
2021/12/19 04:15:31;;;;;;;0.60;0.60;;;6.90;99.90;;;;;;5007664;28;20068;-72
2021/12/19 04:17:57;;;;;;;2.25;0.90;;;6.90;99.90;;;;;;5014084;28;20061;-69
2021/12/19 04:20:22;;;;;;;1.00;0.90;;;6.80;99.90;;;;;;5013794;28;20437;-69
2021/12/19 04:22:51;;;;;;;2.22;0.80;;;6.80;99.90;;;;;;5013402;28;20460;-69
2021/12/19 04:25:17;;;;;;;1.30;0.70;;;6.80;99.90;;;;;;4997744;28;20060;-69
2021/12/19 04:27:43;;;;;;;1.15;0.90;;;6.80;99.90;;;;;;5012857;28;20474;-68
2021/12/19 04:30:13;;;;;;;1.73;1.00;;;6.70;99.90;;;;;;5026371;28;20049;-68
2021/12/19 04:32:44;;;;;;;1.45;0.90;;;6.80;99.90;;;;;;5005672;28;20054;-68
2021/12/19 04:35:10;;;;;;;1.67;1.03;;;6.70;99.90;;;;;;4997918;28;20041;-70
2021/12/19 04:38:12;;;;;;;2.25;1.05;;;6.70;99.90;;;;;;5024226;28;20336;-71
2021/12/19 04:40:30;;;;;;;3.45;1.10;;;6.70;99.90;;;;;;5009562;28;20128;-71
2021/12/19 04:57:03;;;;;;;1.52;1.13;;;6.70;99.90;;;;;;5014044;28;20064;-70
2021/12/19 04:59:06;;;;;;;3.03;1.33;;;6.70;99.90;;;;;;5006246;28;20049;-69
2021/12/19 05:01:58;;;;;;;1.85;1.40;;;6.70;99.90;;;;;;5007829;28;20103;-70
2021/12/19 05:04:41;;;;;;;3.42;1.27;;;6.70;99.90;;;;;;5005721;28;20064;-70
2021/12/19 05:15:00;;;;;;;3.67;1.40;;;6.70;99.90;;;;;;5027542;28;20160;-70
2021/12/19 05:17:28;;;;;;;3.58;1.55;;;6.70;99.90;;;;;;5013180;28;20116;-69
2021/12/19 05:20:09;;;;;;;3.95;2.15;;;6.60;99.90;;;;;;5013461;28;20474;-70
2021/12/19 05:22:43;;;;;;;2.97;1.50;;;6.60;99.90;;;;;;5012961;28;20498;-69
2021/12/19 05:25:17;;;;;;;3.58;1.85;;;6.60;99.90;;;;;;5011387;28;20057;-70
2021/12/19 05:27:49;;;;;;;5.43;2.10;;;6.60;99.90;;;;;;5030084;28;20444;-70
2021/12/19 05:30:15;;;;;;;4.55;2.08;;;6.70;99.90;;;;;;5028100;28;20501;-69
2021/12/19 05:32:44;;;;;;;3.45;1.70;;;6.60;99.90;;;;;;5012893;28;20404;-69
2021/12/19 05:35:13;;;;;;;5.22;2.00;;;6.60;99.90;;;;;;5008980;28;20620;-69
2021/12/19 05:45:51;;;;;;;6.88;2.05;;;6.70;99.90;;;;;;5008125;28;20062;-69
2021/12/19 05:48:16;;;;;;;4.80;1.60;;;6.70;99.90;;;;;;5013396;28;20644;-69
2021/12/19 05:50:42;;;;;;;7.70;2.00;;;6.70;99.90;;;;;;5016137;28;20112;-70
2021/12/19 05:53:10;;;;;;;4.82;2.15;;;6.70;99.90;;;;;;5016198;28;20057;-69
2021/12/19 05:55:36;;;;;;;6.18;2.00;;;6.70;99.90;;;;;;5034794;28;20073;-69
2021/12/19 05:58:03;;;;;;;4.78;2.53;;;6.70;99.90;;;;;;5015923;28;20083;-70
2021/12/19 06:00:29;;;;;;;6.65;2.50;;;6.70;99.90;;;;;;5034320;28;20069;-69
2021/12/19 06:02:55;;;;;;;5.35;2.90;;;6.70;99.90;;;;;;5008376;28;20037;-68
2021/12/19 06:05:21;;;;;;;10.30;3.47;;;6.80;99.90;;;;;;5032871;28;20046;-69
2021/12/19 06:07:47;;;;;;;6.18;3.30;;;6.80;99.90;;;;;;5033612;28;20061;-68
2021/12/19 06:10:13;;;;;;;11.35;4.03;;;6.80;99.90;;;;;;5016607;28;20045;-69
2021/12/19 06:12:39;;;;;;;7.13;3.60;;;6.80;99.90;;;;;;5016528;28;20120;-68
2021/12/19 06:15:08;;;;;;;11.38;4.30;;;6.80;99.90;;;;;;5016470;28;20125;-69
2021/12/19 06:17:34;;;;;;;8.48;4.00;;;6.90;99.90;;;;;;5026226;28;20045;-69
2021/12/19 06:20:00;;;;;;;8.20;4.00;;;6.90;99.90;;;;;;5003678;28;20470;-69
2021/12/19 06:22:26;;;;;;;10.05;4.32;;;6.80;99.90;;;;;;5005820;28;20132;-69
2021/12/19 06:24:51;;;;;;;10.73;4.13;;;6.80;99.90;;;;;;5012798;28;20045;-69
2021/12/19 06:27:17;;;;;;;11.75;4.22;;;6.80;99.90;;;;;;5007942;28;20506;-68
2021/12/19 06:29:42;;;;;;;16.33;4.95;;;6.90;99.90;;;;;;5013992;28;20510;-69
2021/12/19 06:32:08;;;;;;;13.25;4.63;;;6.90;99.90;;;;;;5009532;28;20046;-71
2021/12/19 06:34:34;;;;;;;12.63;5.63;;;6.90;99.90;;;;;;5029157;28;20214;-70
2021/12/19 06:36:59;;;;;;;17.25;5.68;;;6.90;99.90;;;;;;5033483;28;20049;-68
2021/12/19 06:39:25;;;;;;;15.93;5.88;;;6.90;99.90;;;;;;5025274;28;20048;-68
2021/12/19 06:41:51;;;;;;;11.73;5.60;;;6.90;99.90;;;;;;5034036;28;20060;-69
2021/12/19 06:44:18;;;;;;;11.65;5.15;;;6.90;99.90;;;;;;5036297;28;20103;-70
2021/12/19 06:46:44;;;;;;;15.57;5.65;;;6.90;99.90;;;;;;5034166;28;20056;-69
2021/12/19 06:49:10;;;;;;;14.35;5.90;;;7.00;99.90;;;;;;5035845;28;20056;-71
2021/12/19 06:51:36;;;;;;;14.90;6.35;;;7.00;99.90;;;;;;5031046;28;20041;-69
2021/12/19 06:54:02;;;;;;;15.82;6.75;;;7.00;99.90;;;;;;5049425;28;20052;-68
2021/12/19 06:56:28;;;;;;;19.98;6.88;;;7.00;99.90;;;;;;5036382;28;20193;-69
2021/12/19 06:58:54;;;;;;;13.90;5.57;;;7.00;99.90;;;;;;5036572;28;20374;-72
2021/12/19 07:01:19;;;;;;;15.43;5.70;;;7.00;99.90;;;;;;5035794;28;20105;-70
2021/12/19 07:03:45;;;;;;;13.32;5.05;;;7.00;99.90;;;;;;5036469;28;20409;-71
2021/12/19 07:06:10;;;;;;;10.75;4.57;;;7.00;99.90;;;;;;5036616;28;20367;-70
2021/12/19 07:08:36;;;;;;;12.45;5.10;;;7.00;99.90;;;;;;5036560;28;20056;-69
2021/12/19 07:11:02;;;;;;;10.55;4.95;;;7.00;99.90;;;;;;5052733;28;20056;-69
2021/12/19 07:13:27;;;;;;;14.07;4.40;;;7.00;99.90;;;;;;5029841;28;20056;-68
2021/12/19 07:15:54;;;;;;;11.30;4.72;;;7.00;99.90;;;;;;5038543;28;20155;-69
2021/12/19 07:18:21;;;;;;;13.77;4.40;;;7.00;99.90;;;;;;5034419;28;20052;-70
2021/12/19 07:20:47;;;;;;;15.38;5.35;;;7.00;99.90;;;;;;5053557;28;20041;-70
2021/12/19 07:23:14;;;;;;;14.05;6.07;;;7.00;99.90;;;;;;5036549;28;20051;-68
2021/12/19 07:25:40;;;;;;;13.27;5.65;;;7.10;99.90;;;;;;5036217;28;20052;-69
2021/12/19 07:28:06;;;;;;;13.35;5.85;;;7.00;99.90;;;;;;5035994;28;20401;-70
2021/12/19 07:30:35;;;;;;;12.50;5.47;;;7.10;99.90;;;;;;5035754;28;20061;-69
2021/12/19 07:33:01;;;;;;;15.20;4.93;;;7.10;99.90;;;;;;5035585;28;20060;-70
2021/12/19 07:35:27;;;;;;;10.18;4.82;;;7.10;99.90;;;;;;5035754;28;20087;-69
2021/12/19 07:37:55;;;;;;;12.55;4.35;;;7.10;99.90;;;;;;5035679;28;20408;-70
2021/12/19 07:40:23;;;;;;;14.07;5.82;;;7.10;99.90;;;;;;5035915;28;20048;-70
2021/12/19 07:42:50;;;;;;;16.27;5.22;;;7.10;99.90;;;;;;5035834;28;20079;-70
2021/12/19 07:45:17;;;;;;;12.63;5.80;;;7.10;99.90;;;;;;5018901;28;20045;-70
2021/12/19 07:47:44;;;;;;;14.23;5.43;;;7.10;99.90;;;;;;5035090;28;20055;-69
2021/12/19 07:50:21;;;;;;;11.63;4.95;;;7.10;99.90;;;;;;5054127;28;20144;-69
2021/12/19 07:52:49;;;;;;;11.27;5.30;;;7.00;99.90;;;;;;5034904;28;20053;-68
2021/12/19 07:55:15;;;;;;;12.48;5.93;;;7.10;99.90;;;;;;5052806;28;20501;-69
2021/12/19 07:57:41;;;;;;;16.08;5.72;;;;;;;;;;5054938;28;20052;-69
2021/12/19 08:00:10;;;;;;;14.98;6.20;;;7.10;99.90;;;;;;5038599;28;20107;-69
2021/12/19 08:02:38;;;;;;;13.82;6.68;;;7.00;99.90;;;;;;5035061;28;20052;-68
2021/12/19 08:05:04;;;;;;;15.48;5.95;;;7.00;99.90;;;;;;5035464;28;20122;-68
2021/12/19 08:07:30;;;;;;;14.63;5.88;;;7.10;99.90;;;;;;5035126;28;20053;-68
2021/12/19 08:10:00;;;;;;;13.02;5.35;;;7.00;99.90;;;;;;5035353;28;20397;-68
2021/12/19 08:12:26;;;;;;;11.70;4.68;;;7.00;99.90;;;;;;5053151;28;20053;-69
2021/12/19 08:14:51;;;;;;;15.35;6.00;;;7.00;99.90;;;;;;5035365;28;20119;-70
2021/12/19 08:17:21;;;;;;;13.10;5.32;;;7.00;99.90;;;;;;5017917;28;20048;-71
2021/12/19 08:19:48;;;;;;;11.45;5.07;;;7.00;99.90;;;;;;5018315;28;20051;-70
2021/12/19 08:22:26;;;;;;;14.65;5.57;;;7.00;99.90;;;;;;5035833;28;20056;-68
2021/12/19 08:24:52;;;;;;;14.65;5.20;;;7.60;99.90;;;;;;5051415;28;20052;-69
2021/12/19 08:27:18;;;;;;;11.23;4.38;;;7.10;99.90;;;;;;5035135;28;20048;-70
2021/12/19 08:29:44;;;;;;;12.73;5.15;;;7.00;99.90;;;;;;5034723;28;20068;-68
2021/12/19 08:32:09;;;;;;;14.50;4.80;;;7.00;99.90;;;;;;5018479;28;20041;-70
2021/12/19 08:34:36;;;;;;;14.45;5.28;;;7.00;99.90;;;;;;5018456;28;20495;-70
2021/12/19 08:37:02;;;;;;;14.70;5.18;;;7.00;99.90;;;;;;5035310;28;20383;-70
2021/12/19 08:39:29;;;;;;;12.18;5.20;;;7.00;99.90;;;;;;5032324;28;20060;-70
2021/12/19 08:41:55;;;;;;;10.93;5.13;;;7.00;99.90;;;;;;5052711;28;20063;-67
2021/12/19 08:44:21;;;;;;;11.32;5.03;;;7.00;99.90;;;;;;5051133;28;20128;-68
2021/12/19 08:46:47;;;;;;;12.15;4.35;;;7.00;99.90;;;;;;5051001;28;20056;-71
2021/12/19 08:49:12;;;;;;;10.77;3.85;;;7.00;99.90;;;;;;5052710;28;20057;-70
2021/12/19 08:51:39;;;;;;;9.65;3.97;;;7.00;99.90;;;;;;5034721;28;20045;-70
2021/12/19 08:54:06;;;;;;;12.85;4.60;;;7.00;99.90;;;;;;5051289;28;20060;-71
2021/12/19 08:56:33;;;;;;;12.25;4.20;;;7.10;99.90;;;;;;5051136;28;20079;-69
2021/12/19 08:58:59;;;;;;;12.98;4.25;;;7.10;99.90;;;;;;5051709;28;20072;-68
2021/12/19 09:01:26;;;;;;;11.60;4.00;;;7.10;99.90;;;;;;5051969;28;20171;-70
2021/12/19 09:03:51;;;;;;;10.27;3.80;;;7.10;99.90;;;;;;5052377;28;20060;-68
2021/12/19 09:06:20;;;;;;;8.45;3.63;;;7.10;99.90;;;;;;5051518;28;20061;-70
2021/12/19 09:08:46;;;;;;;13.10;3.80;;;7.10;99.90;;;;;;5054063;28;20499;-71
2021/12/19 09:11:12;;;;;;;9.88;3.70;;;7.10;99.90;;;;;;5048201;28;20128;-69
2021/12/19 09:13:38;;;;;;;10.70;3.50;;;7.10;99.90;;;;;;5022008;28;20465;-70
2021/12/19 09:16:04;;;;;;;13.20;3.63;;;7.10;99.90;;;;;;5056109;28;20064;-68
2021/12/19 09:18:29;;;;;;;8.23;3.70;;;7.20;99.90;;;;;;5056381;28;20052;-69
2021/12/19 09:20:55;;;;;;;10.73;3.67;;;7.20;99.90;;;;;;5054995;28;20056;-69
2021/12/19 09:23:22;;;;;;;11.95;3.33;;;7.20;99.90;;;;;;5038128;28;20123;-69
2021/12/19 09:25:48;;;;;;;12.95;3.40;;;7.20;99.90;;;;;;5022828;28;20128;-68
2021/12/19 09:28:14;;;;;;;11.90;3.65;;;7.20;99.90;;;;;;5038318;28;20555;-70
2021/12/19 09:30:43;;;;;;;10.88;3.58;;;7.20;99.90;;;;;;5037773;28;20069;-71
2021/12/19 09:33:09;;;;;;;7.60;3.17;;;7.20;99.90;;;;;;5038173;28;20049;-70
2021/12/19 09:35:35;;;;;;;11.93;4.10;;;7.20;99.90;;;;;;5038244;28;20075;-69
2021/12/19 09:38:02;;;;;;;11.40;4.10;;;7.20;99.90;;;;;;5032289;28;20137;-70
2021/12/19 09:40:36;;;;;;;10.80;3.70;;;7.30;99.90;;;;;;5017817;28;20050;-69
2021/12/19 09:43:05;;;;;;;12.65;4.03;;;7.30;99.90;;;;;;5035796;28;20138;-68
2021/12/19 09:45:33;;;;;;;12.65;3.33;;;7.30;99.90;;;;;;5034583;28;20045;-70
2021/12/19 09:47:59;;;;;;;7.20;3.10;;;6.50;99.90;;;;;;5017867;28;20394;-69
2021/12/19 09:50:25;;;;;;;12.98;3.35;;;7.40;99.90;;;;;;5018780;28;20053;-69
2021/12/19 09:52:51;;;;;;;15.18;3.90;;;7.30;99.90;;;;;;5017741;28;20054;-70
2021/12/19 09:55:21;;;;;;;10.35;3.25;;;7.40;99.90;;;;;;5018275;28;20052;-69
2021/12/19 09:57:48;;;;;;;13.48;3.20;;;7.40;99.90;;;;;;5017733;28;20088;-69
2021/12/19 10:00:15;;;;;;;9.73;3.20;;;7.40;99.90;;;;;;5018021;28;20072;-70
2021/12/19 10:02:41;;;;;;;8.85;3.38;;;7.40;99.90;;;;;;5017416;28;20111;-70
2021/12/19 10:05:16;;;;;;;10.60;3.60;;;7.50;99.90;;;;;;5018510;28;20057;-68
2021/12/19 10:08:04;;;;;;;8.90;3.40;;;7.40;99.90;;;;;;5017376;28;20061;-69
2021/12/19 10:10:47;;;;;;;10.13;3.40;;;7.40;99.90;;;;;;5017880;28;20404;-69
2021/12/19 10:13:14;;;;;;;7.35;2.85;;;7.40;99.90;;;;;;5017644;28;20065;-71
2021/12/19 10:15:42;;;;;;;15.93;2.90;;;7.40;99.90;;;;;;5017177;28;20103;-69
2021/12/19 10:18:12;;;;;;;7.20;2.88;;;7.40;99.90;;;;;;5017525;28;20057;-70
2021/12/19 10:20:40;;;;;;;10.02;3.00;;;7.50;99.90;;;;;;5017010;28;20061;-69
2021/12/19 10:23:16;;;;;;;8.38;3.10;;;7.50;99.90;;;;;;5017458;28;20053;-69
2021/12/19 10:25:42;;;;;;;5.53;2.88;;;7.50;99.90;;;;;;5034138;28;20118;-70
2021/12/19 10:28:09;;;;;;;9.13;3.30;;;7.50;99.90;;;;;;5016644;28;20064;-68
2021/12/19 10:30:46;;;;;;;8.43;3.67;;;7.50;99.90;;;;;;5015730;28;20042;-68
2021/12/19 10:33:23;;;;;;;12.05;3.35;;;7.50;99.90;;;;;;5033567;28;20053;-70
2021/12/19 10:36:05;;;;;;;10.38;3.40;;;7.60;99.90;;;;;;4997184;28;20156;-70
2021/12/19 10:38:39;;;;;;;10.55;3.38;;;7.60;99.90;;;;;;5015476;28;20057;-70
2021/12/19 10:41:07;;;;;;;6.43;2.92;;;7.40;99.90;;;;;;5017194;28;20120;-69
2021/12/19 10:43:40;;;;;;;8.80;3.40;;;7.50;99.90;;;;;;5016774;28;20054;-69
2021/12/19 10:46:08;;;;;;;7.90;3.08;;;7.60;99.90;;;;;;5016302;28;20099;-68
2021/12/19 10:48:37;;;;;;;9.00;3.35;;;7.60;99.90;;;;;;5051785;28;20053;-69
2021/12/19 10:51:10;;;;;;;8.52;2.53;;;7.50;99.90;;;;;;5036641;28;20049;-68
2021/12/19 10:53:40;;;;;;;10.05;3.40;;;7.50;99.90;;;;;;5036637;28;20053;-70
2021/12/19 10:56:12;;;;;;;10.55;3.35;;;7.50;99.90;;;;;;5036823;28;20408;-70
2021/12/19 10:59:08;;;;;;;11.23;3.22;;;7.60;99.90;;;;;;5034148;28;20064;-69
2021/12/19 11:01:36;;;;;;;12.85;3.42;;;7.60;99.90;;;;;;5016494;28;20445;-69
2021/12/19 11:04:07;;;;;;;9.35;3.78;;;7.00;99.90;;;;;;5016728;28;20054;-72
2021/12/19 11:06:41;;;;;;;9.48;3.30;;;7.60;99.90;;;;;;5016402;28;20145;-70
2021/12/19 11:09:22;;;;;;;10.70;3.70;;;7.60;99.90;;;;;;5016824;28;20059;-71
2021/12/19 11:11:59;;;;;;;10.63;3.28;;;7.60;99.90;;;;;;5034271;28;20377;-69
2021/12/19 11:14:31;;;;;;;13.35;3.28;;;7.70;99.90;;;;;;5016536;28;20064;-69
2021/12/19 11:17:09;;;;;;;11.90;3.90;;;7.70;99.90;;;;;;5016052;28;20481;-70
2021/12/19 11:19:39;;;;;;;8.77;2.90;;;7.70;99.90;;;;;;5016713;28;20060;-69
2021/12/19 11:22:08;;;;;;;12.32;3.30;;;7.70;99.90;;;;;;5016022;28;20508;-68
2021/12/19 11:24:36;;;;;;;10.80;2.97;;;7.70;99.90;;;;;;5016016;28;20107;-69
2021/12/19 11:27:05;;;;;;;14.50;2.97;;;7.70;99.90;;;;;;5032486;28;20562;-69
2021/12/19 11:29:31;;;;;;;8.88;3.20;;;7.70;99.90;;;;;;5027200;28;20081;-68
2021/12/19 11:32:00;;;;;;;14.13;3.30;;;7.80;99.90;;;;;;5051083;28;20102;-68
2021/12/19 11:34:44;;;;;;;11.40;2.97;;;7.80;99.90;;;;;;5036119;28;20430;-71
2021/12/19 11:37:13;;;;;;;10.88;3.38;;;7.70;99.90;;;;;;5020516;28;20046;-69
2021/12/19 11:39:46;;;;;;;9.30;3.95;;;7.80;99.90;;;;;;5024229;28;20501;-69
2021/12/19 11:42:18;;;;;;;13.40;3.30;;;7.80;99.90;;;;;;4999515;28;20493;-70
2021/12/19 11:47:55;;;;;;;10.48;2.78;;;7.80;99.90;;;;;;5035123;28;20055;-70
2021/12/19 11:50:23;;;;;;;13.68;3.08;;;7.80;99.90;;;;;;5015276;28;20098;-70
2021/12/19 11:52:51;;;;;;;14.48;3.88;;;7.70;99.90;;;;;;5010752;28;20493;-69
2021/12/19 11:55:19;;;;;;;15.82;3.75;;;7.70;99.90;;;;;;5008701;28;20093;-69
2021/12/19 11:58:07;;;;;;;11.57;3.20;;;7.70;99.90;;;;;;4998111;28;20429;-69
2021/12/19 12:00:38;;;;;;;11.95;3.20;;;7.70;99.90;;;;;;5012381;28;20139;-69
2021/12/19 12:03:13;;;;;;;7.28;2.42;;;7.70;99.90;;;;;;5013833;28;20072;-70
2021/12/19 12:05:49;;;;;;;14.98;3.97;;;7.70;99.90;;;;;;5011072;28;20050;-70
2021/12/19 12:08:17;;;;;;;12.07;3.38;;;7.70;99.90;;;;;;5014311;28;20049;-68
2021/12/19 12:13:26;;;;;;;13.98;3.45;;;7.70;99.90;;;;;;5001581;28;20081;-70
2021/12/19 12:15:59;;;;;;;13.63;3.00;;;7.80;99.90;;;;;;5014321;28;20057;-70
2021/12/19 12:18:42;;;;;;;13.77;3.45;;;7.80;99.90;;;;;;5014499;28;20058;-69
2021/12/19 12:21:29;;;;;;;6.20;2.30;;;7.80;99.90;;;;;;4998460;28;20053;-68
2021/12/19 12:24:03;;;;;;;12.98;2.35;;;7.80;99.90;;;;;;5015305;28;20053;-71
2021/12/19 12:26:42;;;;;;;10.05;3.00;;;7.90;99.90;;;;;;5014887;28;20065;-70
2021/12/19 12:29:09;;;;;;;12.15;2.95;;;7.90;99.90;;;;;;5015114;28;20496;-70
2021/12/19 12:31:36;;;;;;;10.60;2.80;;;7.90;99.90;;;;;;5014440;28;20049;-71
2021/12/19 12:34:03;;;;;;;9.13;2.40;;;7.90;99.90;;;;;;5015207;28;20104;-69
2021/12/19 12:36:29;;;;;;;11.20;2.88;;;7.90;99.90;;;;;;5032618;28;20053;-69
2021/12/19 12:38:55;;;;;;;10.57;2.63;;;7.90;99.90;;;;;;5014119;28;20115;-70
2021/12/19 12:44:09;;;;;;;13.52;2.58;;;7.90;99.90;;;;;;5038455;28;20068;-68
2021/12/19 12:46:35;;;;;;;10.13;2.87;;;7.90;99.90;;;;;;5004493;28;20076;-71
2021/12/19 12:49:06;;;;;;;10.10;2.42;;;7.90;99.90;;;;;;5021498;28;20092;-70
2021/12/19 12:51:39;;;;;;;10.85;3.05;;;7.90;99.90;;;;;;5020534;28;20041;-70
2021/12/19 12:54:19;;;;;;;11.30;2.22;;;7.90;99.90;;;;;;5038684;28;20053;-68
2021/12/19 12:56:49;;;;;;;11.90;2.70;;;7.90;99.90;;;;;;5021298;28;20128;-68
2021/12/19 12:59:17;;;;;;;13.02;2.95;;;7.90;99.90;;;;;;5005067;28;20100;-69
2021/12/19 13:01:53;;;;;;;11.68;3.33;;;7.90;99.90;;;;;;5004670;28;20060;-71
2021/12/19 13:04:22;;;;;;;10.75;2.47;;;7.90;99.90;;;;;;5021307;28;20481;-70
2021/12/19 13:06:52;;;;;;;13.30;3.03;;;7.90;99.90;;;;;;5020881;28;20143;-68
2021/12/19 13:09:24;;;;;;;11.32;2.72;;;7.90;99.90;;;;;;5020531;28;20109;-68
2021/12/19 13:11:57;;;;;;;14.82;3.42;;;7.90;99.90;;;;;;5022866;28;20061;-69
2021/12/19 13:14:28;;;;;;;12.15;3.10;;;7.90;99.90;;;;;;5019515;28;20050;-71
2021/12/19 13:16:57;;;;;;;12.43;3.00;;;7.90;99.90;;;;;;5020077;28;20045;-69
2021/12/19 13:19:38;;;;;;;13.07;2.85;;;7.90;99.90;;;;;;5021713;28;20292;-68
2021/12/19 13:22:06;;;;;;;10.90;2.75;;;7.90;99.90;;;;;;5004391;28;20184;-70
2021/12/19 13:24:34;;;;;;;11.98;2.25;;;7.90;99.90;;;;;;5020795;28;20085;-69
2021/12/19 13:27:05;;;;;;;12.90;2.55;;;7.90;99.90;;;;;;5021272;28;20041;-69
2021/12/19 13:29:31;;;;;;;12.57;3.35;;;7.90;99.90;;;;;;5021026;28;20080;-69
2021/12/19 13:32:21;;;;;;;14.23;3.00;;;7.80;99.90;;;;;;5026558;28;20130;-70
2021/12/19 13:34:49;;;;;;;12.15;3.17;;;7.90;99.90;;;;;;5040891;28;20053;-69
2021/12/19 13:37:15;;;;;;;15.32;3.75;;;7.80;99.90;;;;;;5040632;28;20056;-68
2021/12/19 13:39:42;;;;;;;12.90;2.75;;;7.90;99.90;;;;;;5023758;28;20052;-68
2021/12/19 13:42:12;;;;;;;18.40;3.47;;;7.90;99.90;;;;;;5024019;28;20053;-68
2021/12/19 13:44:38;;;;;;;12.65;2.33;;;7.90;99.90;;;;;;5040543;28;20067;-69
2021/12/19 13:47:12;;;;;;;12.27;2.90;;;7.90;99.90;;;;;;5040083;28;20476;-68
2021/12/19 13:49:39;;;;;;;15.23;3.33;;;7.90;99.90;;;;;;5040793;28;20065;-68
2021/12/19 13:52:06;;;;;;;16.75;3.00;;;7.90;99.90;;;;;;5037644;28;20450;-70
2021/12/19 13:54:34;;;;;;;17.98;3.92;;;7.90;99.90;;;;;;5033870;28;20056;-69
2021/12/19 13:57:00;;;;;;;15.68;3.38;;;7.90;99.90;;;;;;5034594;28;20547;-69
2021/12/19 13:59:27;;;;;;;19.63;3.08;;;8.20;99.90;;;;;;5036898;28;20041;-69
2021/12/19 14:01:54;;;;;;;17.48;3.35;;;7.80;99.90;;;;;;5036795;28;20528;-68